createdAt,value
2018-06-18T00:00:29.600Z,86.73
2018-06-18T00:01:00.840Z,87.19
2018-06-18T00:01:32.016Z,86.65
2018-06-18T00:02:03.237Z,86.67
2018-06-18T00:02:34.465Z,86.74
2018-06-18T00:03:05.723Z,86.62
2018-06-18T00:03:36.919Z,86.54
2018-06-18T00:04:08.137Z,86.63
2018-06-18T00:04:39.312Z,85.88
2018-06-18T00:05:10.491Z,86.25
2018-06-18T00:05:41.678Z,86.03
2018-06-18T00:06:12.918Z,86.01
2018-06-18T00:06:44.095Z,86.53
2018-06-18T00:07:15.280Z,86.87
2018-06-18T00:07:46.502Z,86.55
2018-06-18T00:08:17.736Z,86.44
2018-06-18T00:08:48.909Z,86.59
2018-06-18T00:09:20.120Z,86.13
2018-06-18T00:09:51.296Z,85.91
2018-06-18T00:10:22.525Z,86.21
2018-06-18T00:10:53.765Z,86.57
2018-06-18T00:11:25.900Z,86.38
2018-06-18T00:11:57.179Z,86.13
2018-06-18T00:12:28.383Z,86.54
2018-06-18T00:12:59.592Z,87.20
2018-06-18T00:13:30.824Z,86.72
2018-06-18T00:14:02.006Z,87.28
2018-06-18T00:14:33.182Z,86.63
2018-06-18T00:15:04.359Z,87.30
2018-06-18T00:15:35.598Z,86.73
2018-06-18T00:16:06.799Z,87.24
2018-06-18T00:16:38.014Z,86.74
2018-06-18T00:17:09.278Z,86.77
2018-06-18T00:17:40.464Z,86.73
2018-06-18T00:18:11.644Z,86.30
2018-06-18T00:18:42.871Z,86.49
2018-06-18T00:19:14.118Z,86.87
2018-06-18T00:19:45.328Z,86.45
2018-06-18T00:20:16.509Z,86.49
2018-06-18T00:20:47.737Z,86.71
2018-06-18T00:21:18.956Z,86.15
2018-06-18T00:21:50.137Z,86.21
2018-06-18T00:22:21.408Z,85.99
2018-06-18T00:22:52.628Z,86.45
2018-06-18T00:23:23.815Z,86.04
2018-06-18T00:23:54.997Z,86.24
2018-06-18T00:24:26.177Z,86.32
2018-06-18T00:24:57.414Z,86.03
2018-06-18T00:25:28.589Z,85.73
2018-06-18T00:25:59.817Z,85.43
2018-06-18T00:26:31.032Z,85.52
2018-06-18T00:27:02.206Z,85.30
2018-06-18T00:27:33.438Z,85.70
2018-06-18T00:28:04.619Z,85.64
2018-06-18T00:28:35.806Z,86.06
2018-06-18T00:29:06.976Z,86.06
2018-06-18T00:29:38.152Z,85.33
2018-06-18T00:30:09.679Z,85.54
2018-06-18T00:30:40.876Z,86.25
2018-06-18T00:31:12.108Z,86.03
2018-06-18T00:31:43.338Z,86.18
2018-06-18T00:32:14.581Z,85.80
2018-06-18T00:32:45.799Z,85.83
2018-06-18T00:33:17.029Z,85.67
2018-06-18T00:33:48.210Z,85.54
2018-06-18T00:34:19.434Z,85.27
2018-06-18T00:34:50.681Z,85.87
2018-06-18T00:35:21.875Z,85.99
2018-06-18T00:35:53.110Z,85.71
2018-06-18T00:36:24.344Z,85.74
2018-06-18T00:36:55.569Z,85.82
2018-06-18T00:37:26.748Z,85.27
2018-06-18T00:37:57.989Z,85.79
2018-06-18T00:38:29.229Z,86.12
2018-06-18T00:39:00.416Z,85.16
2018-06-18T00:39:31.589Z,85.33
2018-06-18T00:40:02.809Z,85.39
2018-06-18T00:40:33.980Z,84.97
2018-06-18T00:41:05.213Z,84.78
2018-06-18T00:41:36.497Z,84.28
2018-06-18T00:42:07.684Z,84.28
2018-06-18T00:42:38.931Z,84.13
2018-06-18T00:43:10.131Z,84.47
2018-06-18T00:43:41.372Z,83.91
2018-06-18T00:44:12.559Z,84.38
2018-06-18T00:44:43.845Z,84.55
2018-06-18T00:45:15.090Z,83.84
2018-06-18T00:45:46.272Z,83.82
2018-06-18T00:46:17.541Z,83.80
2018-06-18T00:46:48.724Z,84.09
2018-06-18T00:47:19.900Z,83.89
2018-06-18T00:47:51.109Z,84.01
2018-06-18T00:48:22.327Z,84.25
2018-06-18T00:48:53.548Z,84.43
2018-06-18T00:49:24.810Z,83.71
2018-06-18T00:49:56.038Z,84.04
2018-06-18T00:50:27.300Z,84.64
2018-06-18T00:50:58.546Z,84.55
2018-06-18T00:51:29.837Z,84.75
2018-06-18T00:52:01.017Z,84.71
2018-06-18T00:52:32.199Z,84.47
2018-06-18T00:53:03.385Z,84.18
2018-06-18T00:53:34.560Z,84.09
2018-06-18T00:54:05.799Z,84.57
2018-06-18T00:54:37.052Z,84.25
2018-06-18T00:55:08.248Z,84.54
2018-06-18T00:55:39.435Z,84.66
2018-06-18T00:56:10.654Z,84.22
2018-06-18T00:56:42.034Z,84.02
2018-06-18T00:57:13.231Z,83.74
2018-06-18T00:57:44.516Z,83.92
2018-06-18T00:58:15.708Z,84.12
2018-06-18T00:58:46.881Z,84.13
2018-06-18T00:59:18.057Z,83.91
2018-06-18T00:59:49.292Z,83.67
2018-06-18T01:00:20.513Z,83.59
2018-06-18T01:00:51.740Z,83.99
2018-06-18T01:01:23.024Z,83.22
2018-06-18T01:01:54.256Z,82.91
2018-06-18T01:02:25.489Z,82.85
2018-06-18T01:02:56.681Z,83.00
2018-06-18T01:03:27.953Z,83.23
2018-06-18T01:03:59.140Z,83.94
2018-06-18T01:04:30.370Z,83.87
2018-06-18T01:05:01.579Z,83.31
2018-06-18T01:05:32.813Z,84.13
2018-06-18T01:06:04.013Z,83.32
2018-06-18T01:06:35.197Z,84.12
2018-06-18T01:07:06.388Z,83.74
2018-06-18T01:07:37.608Z,83.69
2018-06-18T01:08:08.784Z,84.24
2018-06-18T01:08:39.972Z,84.23
2018-06-18T01:09:11.152Z,83.89
2018-06-18T01:09:42.376Z,83.68
2018-06-18T01:10:13.553Z,83.32
2018-06-18T01:10:44.741Z,83.03
2018-06-18T01:11:15.973Z,82.83
2018-06-18T01:11:47.212Z,82.79
2018-06-18T01:12:18.406Z,83.47
2018-06-18T01:12:49.659Z,83.41
2018-06-18T01:13:20.904Z,83.26
2018-06-18T01:13:52.095Z,84.04
2018-06-18T01:14:23.365Z,83.41
2018-06-18T01:14:54.637Z,83.51
2018-06-18T01:15:25.841Z,83.80
2018-06-18T01:15:57.016Z,83.98
2018-06-18T01:16:28.245Z,83.82
2018-06-18T01:16:59.430Z,83.97
2018-06-18T01:17:30.664Z,83.36
2018-06-18T01:18:01.907Z,83.44
2018-06-18T01:18:33.100Z,83.97
2018-06-18T01:19:04.289Z,84.32
2018-06-18T01:19:35.468Z,83.96
2018-06-18T01:20:06.640Z,84.63
2018-06-18T01:20:37.858Z,84.16
2018-06-18T01:21:09.054Z,84.94
2018-06-18T01:21:40.299Z,84.98
2018-06-18T01:22:11.528Z,84.53
2018-06-18T01:22:42.712Z,84.80
2018-06-18T01:23:13.996Z,84.44
2018-06-18T01:23:45.221Z,84.96
2018-06-18T01:24:16.397Z,84.48
2018-06-18T01:24:47.579Z,84.77
2018-06-18T01:25:18.780Z,85.15
2018-06-18T01:25:54.283Z,84.52
2018-06-18T01:27:04.174Z,84.87
2018-06-18T01:27:35.393Z,85.19
2018-06-18T01:28:06.601Z,84.75
2018-06-18T01:28:37.820Z,85.55
2018-06-18T01:29:09.053Z,85.51
2018-06-18T01:29:40.252Z,85.65
2018-06-18T01:30:11.531Z,85.28
2018-06-18T01:30:42.762Z,85.33
2018-06-18T01:31:13.940Z,85.29
2018-06-18T01:31:45.124Z,84.98
2018-06-18T01:32:16.296Z,84.38
2018-06-18T01:32:47.498Z,84.71
2018-06-18T01:33:18.724Z,85.29
2018-06-18T01:33:49.956Z,85.33
2018-06-18T01:34:21.133Z,84.68
2018-06-18T01:34:52.300Z,84.99
2018-06-18T01:35:23.563Z,85.04
2018-06-18T01:35:54.745Z,85.68
2018-06-18T01:36:25.926Z,85.85
2018-06-18T01:36:57.163Z,86.02
2018-06-18T01:37:28.420Z,86.06
2018-06-18T01:37:59.720Z,85.76
2018-06-18T01:38:30.889Z,86.25
2018-06-18T01:39:02.198Z,86.16
2018-06-18T01:39:33.442Z,85.83
2018-06-18T01:40:04.633Z,85.66
2018-06-18T01:40:35.893Z,85.66
2018-06-18T01:41:07.098Z,85.87
2018-06-18T01:41:38.314Z,86.50
2018-06-18T01:42:09.495Z,86.09
2018-06-18T01:42:40.729Z,86.47
2018-06-18T01:43:11.924Z,86.47
2018-06-18T01:43:43.096Z,86.35
2018-06-18T01:44:14.275Z,86.74
2018-06-18T01:44:45.509Z,86.80
2018-06-18T01:45:16.789Z,86.18
2018-06-18T01:45:48.025Z,86.16
2018-06-18T01:46:19.200Z,86.49
2018-06-18T01:46:50.430Z,86.06
2018-06-18T01:47:21.714Z,85.90
2018-06-18T01:47:52.968Z,86.35
2018-06-18T01:48:24.209Z,86.52
2018-06-18T01:48:55.466Z,86.38
2018-06-18T01:49:26.700Z,86.86
2018-06-18T01:49:57.881Z,86.12
2018-06-18T01:50:29.058Z,86.42
2018-06-18T01:51:00.239Z,86.80
2018-06-18T01:51:31.415Z,86.29
2018-06-18T01:52:02.592Z,86.44
2018-06-18T01:52:33.978Z,86.37
2018-06-18T01:53:05.220Z,85.90
2018-06-18T01:53:36.404Z,86.57
2018-06-18T01:54:07.582Z,86.00
2018-06-18T01:54:38.817Z,86.30
2018-06-18T01:55:10.032Z,86.72
2018-06-18T01:55:41.200Z,86.31
2018-06-18T01:56:12.385Z,86.85
2018-06-18T01:56:43.606Z,86.57
2018-06-18T01:57:14.829Z,85.71
2018-06-18T01:57:46.011Z,86.45
2018-06-18T01:58:17.244Z,86.49
2018-06-18T01:58:48.474Z,86.24
2018-06-18T01:59:19.707Z,85.89
2018-06-18T01:59:50.944Z,86.10
2018-06-18T02:00:22.132Z,86.35
2018-06-18T02:00:53.321Z,85.46
2018-06-18T02:01:24.549Z,85.71
2018-06-18T02:01:55.764Z,86.20
2018-06-18T02:02:26.962Z,85.47
2018-06-18T02:02:58.193Z,85.46
2018-06-18T02:03:29.421Z,85.13
2018-06-18T02:04:00.600Z,84.91
2018-06-18T02:04:31.802Z,85.53
2018-06-18T02:05:02.977Z,85.66
2018-06-18T02:05:34.162Z,85.54
2018-06-18T02:06:05.433Z,85.11
2018-06-18T02:06:36.613Z,85.53
2018-06-18T02:07:07.800Z,85.33
2018-06-18T02:07:39.030Z,84.93
2018-06-18T02:08:10.352Z,84.96
2018-06-18T02:08:41.545Z,85.21
2018-06-18T02:09:12.784Z,85.11
2018-06-18T02:09:44.035Z,84.46
2018-06-18T02:10:15.219Z,84.17
2018-06-18T02:10:46.441Z,83.94
2018-06-18T02:11:17.701Z,83.68
2018-06-18T02:11:48.888Z,84.28
2018-06-18T02:12:20.068Z,83.88
2018-06-18T02:12:51.293Z,83.88
2018-06-18T02:13:22.564Z,83.30
2018-06-18T02:13:53.801Z,83.41
2018-06-18T02:14:24.980Z,83.15
2018-06-18T02:14:56.187Z,83.66
2018-06-18T02:15:27.374Z,83.80
2018-06-18T02:15:58.610Z,83.68
2018-06-18T02:16:29.796Z,82.88
2018-06-18T02:17:01.039Z,83.43
2018-06-18T02:17:32.232Z,83.59
2018-06-18T02:18:03.461Z,83.49
2018-06-18T02:18:34.704Z,83.27
2018-06-18T02:19:05.885Z,83.60
2018-06-18T02:19:37.056Z,83.11
2018-06-18T02:20:08.232Z,83.20
2018-06-18T02:20:39.408Z,83.33
2018-06-18T02:21:10.589Z,83.75
2018-06-18T02:21:41.816Z,83.58
2018-06-18T02:22:13.056Z,83.31
2018-06-18T02:22:44.294Z,83.53
2018-06-18T02:23:15.503Z,83.39
2018-06-18T02:23:46.724Z,83.42
2018-06-18T02:24:17.953Z,82.98
2018-06-18T02:24:49.143Z,82.65
2018-06-18T02:25:20.320Z,82.76
2018-06-18T02:25:51.520Z,82.86
2018-06-18T02:26:22.693Z,83.12
2018-06-18T02:26:53.892Z,83.64
2018-06-18T02:27:25.134Z,82.96
2018-06-18T02:27:56.380Z,83.64
2018-06-18T02:28:27.585Z,83.09
2018-06-18T02:28:58.807Z,83.13
2018-06-18T02:29:29.973Z,83.56
2018-06-18T02:30:01.149Z,83.41
2018-06-18T02:30:32.415Z,83.04
2018-06-18T02:31:03.601Z,83.27
2018-06-18T02:31:34.774Z,83.39
2018-06-18T02:32:05.963Z,82.90
2018-06-18T02:32:37.195Z,82.81
2018-06-18T02:33:08.376Z,83.77
2018-06-18T02:33:39.620Z,84.04
2018-06-18T02:34:10.853Z,83.75
2018-06-18T02:34:42.032Z,84.07
2018-06-18T02:35:13.273Z,84.15
2018-06-18T02:35:44.457Z,83.54
2018-06-18T02:36:15.644Z,84.54
2018-06-18T02:36:46.897Z,84.47
2018-06-18T02:37:18.084Z,83.40
2018-06-18T02:37:49.278Z,84.03
2018-06-18T02:38:20.469Z,83.47
2018-06-18T02:38:51.654Z,83.15
2018-06-18T02:39:22.937Z,83.56
2018-06-18T02:39:54.206Z,83.19
2018-06-18T02:40:25.480Z,83.69
2018-06-18T02:40:56.754Z,82.99
2018-06-18T02:41:27.933Z,83.72
2018-06-18T02:41:59.108Z,83.47
2018-06-18T02:42:30.280Z,83.12
2018-06-18T02:43:01.508Z,83.31
2018-06-18T02:43:32.725Z,83.16
2018-06-18T02:44:03.896Z,83.31
2018-06-18T02:44:35.074Z,82.61
2018-06-18T02:45:06.299Z,82.35
2018-06-18T02:45:37.483Z,82.41
2018-06-18T02:46:08.673Z,82.49
2018-06-18T02:46:39.863Z,82.78
2018-06-18T02:47:11.034Z,83.16
2018-06-18T02:47:42.213Z,83.50
2018-06-18T02:48:13.424Z,83.40
2018-06-18T02:48:44.684Z,83.25
2018-06-18T02:49:15.862Z,83.58
2018-06-18T02:49:47.036Z,83.24
2018-06-18T02:50:18.272Z,83.50
2018-06-18T02:50:49.458Z,83.99
2018-06-18T02:51:20.742Z,84.33
2018-06-18T02:51:51.972Z,84.24
2018-06-18T02:52:23.161Z,84.14
2018-06-18T02:52:54.340Z,83.79
2018-06-18T02:53:25.521Z,83.94
2018-06-18T02:53:56.781Z,83.66
2018-06-18T02:54:28.017Z,84.22
2018-06-18T02:54:59.196Z,83.52
2018-06-18T02:55:30.369Z,83.33
2018-06-18T02:56:01.594Z,83.97
2018-06-18T02:56:32.795Z,83.85
2018-06-18T02:57:03.964Z,83.17
2018-06-18T02:57:35.191Z,83.73
2018-06-18T02:58:06.424Z,83.16
2018-06-18T02:58:37.596Z,83.02
2018-06-18T02:59:08.849Z,83.17
2018-06-18T02:59:40.058Z,82.79
2018-06-18T03:00:11.233Z,82.97
2018-06-18T03:00:42.416Z,82.76
2018-06-18T03:01:13.641Z,82.79
2018-06-18T03:01:44.821Z,82.91
2018-06-18T03:02:16.062Z,83.01
2018-06-18T03:02:47.241Z,83.06
2018-06-18T03:03:18.477Z,82.75
2018-06-18T03:03:49.662Z,82.76
2018-06-18T03:04:20.908Z,83.52
2018-06-18T03:04:52.081Z,82.85
2018-06-18T03:05:23.248Z,83.12
2018-06-18T03:05:54.425Z,83.68
2018-06-18T03:06:25.614Z,83.12
2018-06-18T03:06:56.813Z,83.67
2018-06-18T03:07:27.983Z,83.38
2018-06-18T03:07:59.216Z,83.69
2018-06-18T03:08:30.401Z,84.10
2018-06-18T03:09:01.620Z,83.54
2018-06-18T03:09:32.885Z,83.77
2018-06-18T03:10:04.066Z,83.93
2018-06-18T03:10:35.244Z,83.65
2018-06-18T03:11:06.408Z,84.16
2018-06-18T03:11:37.584Z,84.07
2018-06-18T03:12:08.772Z,83.79
2018-06-18T03:12:40.021Z,84.36
2018-06-18T03:13:11.273Z,84.20
2018-06-18T03:13:42.488Z,83.40
2018-06-18T03:14:13.663Z,83.53
2018-06-18T03:14:44.838Z,84.36
2018-06-18T03:15:16.013Z,83.77
2018-06-18T03:15:47.182Z,83.42
2018-06-18T03:16:18.358Z,83.27
2018-06-18T03:16:49.581Z,83.08
2018-06-18T03:17:20.779Z,83.15
2018-06-18T03:17:51.961Z,83.88
2018-06-18T03:18:23.134Z,83.55
2018-06-18T03:18:54.352Z,84.05
2018-06-18T03:19:25.575Z,84.32
2018-06-18T03:19:56.753Z,83.76
2018-06-18T03:20:27.969Z,83.89
2018-06-18T03:20:59.188Z,84.21
2018-06-18T03:21:30.363Z,83.69
2018-06-18T03:22:01.563Z,83.15
2018-06-18T03:22:32.754Z,82.98
2018-06-18T03:23:04.045Z,82.76
2018-06-18T03:23:35.230Z,82.88
2018-06-18T03:24:06.392Z,82.77
2018-06-18T03:24:37.649Z,83.19
2018-06-18T03:25:08.841Z,82.75
2018-06-18T03:25:40.012Z,83.09
2018-06-18T03:26:11.198Z,83.24
2018-06-18T03:26:42.370Z,83.15
2018-06-18T03:27:13.605Z,82.36
2018-06-18T03:27:44.820Z,82.44
2018-06-18T03:28:16.013Z,82.34
2018-06-18T03:28:47.193Z,82.71
2018-06-18T03:29:20.047Z,82.51
2018-06-18T03:29:51.389Z,82.13
2018-06-18T03:30:22.573Z,81.74
2018-06-18T03:30:53.748Z,81.49
2018-06-18T03:31:25.000Z,81.57
2018-06-18T03:31:56.275Z,80.85
2018-06-18T03:32:27.472Z,81.06
2018-06-18T03:32:58.692Z,80.69
2018-06-18T03:33:29.884Z,80.98
2018-06-18T03:34:01.064Z,80.46
2018-06-18T03:34:32.253Z,79.96
2018-06-18T03:35:03.446Z,79.76
2018-06-18T03:35:34.625Z,80.00
2018-06-18T03:36:05.854Z,79.27
2018-06-18T03:36:37.044Z,79.45
2018-06-18T03:37:08.333Z,79.03
2018-06-18T03:37:39.538Z,79.18
2018-06-18T03:38:10.721Z,79.08
2018-06-18T03:38:41.904Z,79.20
2018-06-18T03:39:13.084Z,79.58
2018-06-18T03:39:44.268Z,79.35
2018-06-18T03:40:15.533Z,79.50
2018-06-18T03:40:46.715Z,78.98
2018-06-18T03:41:17.892Z,79.35
2018-06-18T03:41:49.069Z,79.42
2018-06-18T03:42:20.365Z,79.94
2018-06-18T03:42:51.589Z,79.26
2018-06-18T03:43:22.822Z,79.13
2018-06-18T03:43:54.053Z,79.49
2018-06-18T03:44:25.241Z,79.64
2018-06-18T03:44:56.420Z,79.57
2018-06-18T03:45:27.600Z,79.71
2018-06-18T03:45:58.776Z,79.63
2018-06-18T03:46:30.109Z,80.16
2018-06-18T03:47:01.387Z,79.74
2018-06-18T03:47:32.677Z,80.19
2018-06-18T03:48:03.913Z,80.43
2018-06-18T03:48:35.100Z,80.01
2018-06-18T03:49:06.278Z,80.11
2018-06-18T03:49:37.465Z,79.21
2018-06-18T03:50:08.648Z,79.63
2018-06-18T03:50:39.832Z,79.88
2018-06-18T03:51:11.013Z,78.70
2018-06-18T03:51:42.188Z,78.80
2018-06-18T03:52:13.368Z,78.58
2018-06-18T03:52:44.584Z,78.71
2018-06-18T03:53:15.801Z,78.32
2018-06-18T03:53:47.026Z,78.32
2018-06-18T03:54:18.211Z,79.15
2018-06-18T03:54:49.399Z,79.37
2018-06-18T03:55:20.589Z,78.14
2018-06-18T03:55:51.776Z,78.55
2018-06-18T03:56:23.007Z,78.85
2018-06-18T03:56:54.209Z,78.73
2018-06-18T03:57:25.393Z,78.68
2018-06-18T03:57:56.598Z,78.00
2018-06-18T03:58:27.825Z,78.33
2018-06-18T03:58:59.052Z,77.76
2018-06-18T03:59:30.276Z,78.19
2018-06-18T04:00:01.510Z,77.84
2018-06-18T04:00:32.693Z,78.08
2018-06-18T04:01:03.871Z,78.75
2018-06-18T04:01:35.050Z,78.42
2018-06-18T04:02:06.294Z,78.84
2018-06-18T04:02:37.491Z,78.82
2018-06-18T04:03:08.728Z,79.10
2018-06-18T04:03:39.917Z,78.61
2018-06-18T04:04:11.129Z,78.80
2018-06-18T04:04:42.300Z,78.67
2018-06-18T04:05:13.522Z,78.32
2018-06-18T04:05:44.749Z,78.85
2018-06-18T04:06:15.941Z,78.35
2018-06-18T04:06:47.170Z,78.45
2018-06-18T04:07:18.420Z,77.81
2018-06-18T04:07:49.605Z,78.17
2018-06-18T04:08:20.832Z,77.50
2018-06-18T04:08:52.072Z,78.06
2018-06-18T04:09:23.263Z,77.20
2018-06-18T04:09:54.545Z,77.67
2018-06-18T04:10:25.737Z,77.59
2018-06-18T04:10:56.916Z,78.00
2018-06-18T04:11:28.155Z,77.52
2018-06-18T04:11:59.392Z,77.97
2018-06-18T04:12:30.604Z,77.51
2018-06-18T04:13:01.803Z,77.86
2018-06-18T04:13:32.980Z,78.07
2018-06-18T04:14:04.151Z,77.47
2018-06-18T04:14:35.328Z,77.24
2018-06-18T04:15:06.516Z,78.02
2018-06-18T04:15:37.691Z,77.92
2018-06-18T04:16:08.874Z,77.32
2018-06-18T04:16:40.052Z,77.10
2018-06-18T04:17:11.289Z,76.75
2018-06-18T04:17:42.499Z,76.54
2018-06-18T04:18:13.673Z,76.72
2018-06-18T04:18:44.901Z,77.24
2018-06-18T04:19:16.102Z,76.66
2018-06-18T04:19:47.342Z,76.94
2018-06-18T04:20:18.595Z,76.57
2018-06-18T04:20:49.828Z,76.45
2018-06-18T04:21:21.057Z,76.97
2018-06-18T04:21:52.331Z,76.58
2018-06-18T04:22:23.566Z,76.88
2018-06-18T04:22:54.748Z,77.14
2018-06-18T04:23:25.977Z,76.89
2018-06-18T04:23:57.166Z,76.96
2018-06-18T04:24:28.346Z,76.42
2018-06-18T04:24:59.573Z,76.78
2018-06-18T04:25:30.761Z,76.77
2018-06-18T04:26:01.972Z,76.09
2018-06-18T04:26:33.215Z,76.33
2018-06-18T04:27:04.456Z,75.92
2018-06-18T04:27:35.713Z,75.89
2018-06-18T04:28:06.946Z,76.58
2018-06-18T04:28:38.130Z,76.38
2018-06-18T04:29:09.367Z,76.45
2018-06-18T04:29:40.555Z,76.67
2018-06-18T04:30:11.752Z,76.55
2018-06-18T04:30:42.989Z,75.93
2018-06-18T04:31:14.217Z,75.61
2018-06-18T04:31:45.445Z,76.03
2018-06-18T04:32:16.627Z,76.05
2018-06-18T04:32:47.856Z,75.55
2018-06-18T04:33:19.043Z,74.95
2018-06-18T04:33:50.225Z,74.24
2018-06-18T04:34:22.228Z,74.75
2018-06-18T04:34:53.413Z,74.23
2018-06-18T04:35:24.595Z,74.00
2018-06-18T04:35:55.798Z,74.39
2018-06-18T04:36:26.980Z,74.02
2018-06-18T04:36:58.209Z,73.85
2018-06-18T04:37:29.409Z,73.47
2018-06-18T04:38:00.600Z,74.28
2018-06-18T04:38:31.781Z,73.21
2018-06-18T04:39:02.956Z,72.81
2018-06-18T04:39:34.153Z,73.21
2018-06-18T04:40:05.385Z,73.98
2018-06-18T04:40:36.565Z,74.26
2018-06-18T04:41:07.773Z,74.47
2018-06-18T04:41:38.948Z,73.31
2018-06-18T04:42:10.116Z,73.14
2018-06-18T04:42:41.345Z,72.99
2018-06-18T04:43:12.556Z,72.28
2018-06-18T04:43:43.777Z,73.01
2018-06-18T04:44:14.956Z,71.91
2018-06-18T04:44:46.175Z,72.06
2018-06-18T04:45:17.389Z,72.39
2018-06-18T04:45:48.714Z,72.14
2018-06-18T04:46:19.901Z,72.72
2018-06-18T04:46:51.087Z,71.75
2018-06-18T04:47:22.314Z,71.39
2018-06-18T04:47:53.540Z,71.33
2018-06-18T04:48:24.714Z,71.20
2018-06-18T04:48:55.944Z,71.97
2018-06-18T04:49:27.131Z,71.63
2018-06-18T04:49:58.307Z,71.19
2018-06-18T04:50:29.486Z,71.50
2018-06-18T04:51:00.704Z,71.44
2018-06-18T04:51:31.920Z,71.53
2018-06-18T04:52:03.116Z,71.85
2018-06-18T04:52:34.344Z,70.94
2018-06-18T04:53:06.368Z,71.80
2018-06-18T04:53:37.553Z,71.47
2018-06-18T04:54:08.726Z,71.63
2018-06-18T04:54:39.968Z,71.50
2018-06-18T04:55:11.224Z,71.46
2018-06-18T04:55:42.409Z,71.31
2018-06-18T04:56:13.632Z,71.61
2018-06-18T04:56:44.931Z,70.64
2018-06-18T04:57:16.101Z,71.57
2018-06-18T04:57:47.285Z,71.20
2018-06-18T04:58:18.581Z,71.33
2018-06-18T04:58:49.811Z,70.47
2018-06-18T04:59:21.045Z,71.63
2018-06-18T04:59:52.260Z,70.95
2018-06-18T05:00:23.465Z,71.37
2018-06-18T05:00:54.634Z,71.39
2018-06-18T05:01:25.804Z,71.03
2018-06-18T05:01:57.013Z,70.62
2018-06-18T05:02:28.197Z,70.77
2018-06-18T05:02:59.440Z,70.51
2018-06-18T05:03:30.625Z,70.38
2018-06-18T05:04:01.796Z,70.95
2018-06-18T05:04:33.021Z,69.36
2018-06-18T05:05:04.248Z,69.84
2018-06-18T05:05:35.460Z,68.39
2018-06-18T05:06:06.699Z,67.85
2018-06-18T05:06:37.878Z,68.34
2018-06-18T05:07:09.040Z,67.95
2018-06-18T05:07:40.265Z,68.23
2018-06-18T05:08:11.489Z,67.57
2018-06-18T05:08:42.660Z,66.78
2018-06-18T05:09:13.851Z,66.67
2018-06-18T05:09:45.021Z,65.61
2018-06-18T05:10:16.318Z,66.04
2018-06-18T05:10:47.497Z,64.67
2018-06-18T05:11:18.673Z,62.78
2018-06-18T05:11:49.916Z,62.04
2018-06-18T05:12:21.097Z,62.16
2018-06-18T05:12:52.282Z,61.02
2018-06-18T05:13:23.484Z,61.14
2018-06-18T05:13:54.687Z,60.30
2018-06-18T05:14:25.864Z,61.20
2018-06-18T05:14:57.073Z,60.18
2018-06-18T05:15:28.265Z,60.53
2018-06-18T05:15:59.521Z,60.80
2018-06-18T05:16:30.707Z,60.76
2018-06-18T05:17:01.888Z,60.46
2018-06-18T05:17:33.072Z,59.34
2018-06-18T05:18:04.249Z,59.20
2018-06-18T05:18:35.428Z,59.80
2018-06-18T05:19:06.647Z,58.81
2018-06-18T05:19:37.974Z,58.01
2018-06-18T05:20:09.160Z,56.29
2018-06-18T05:20:40.426Z,55.76
2018-06-18T05:21:11.609Z,55.70
2018-06-18T05:21:42.780Z,54.16
2018-06-18T05:22:14.005Z,53.66
2018-06-18T05:22:45.188Z,52.96
2018-06-18T05:23:16.424Z,51.36
2018-06-18T05:23:47.653Z,51.08
2018-06-18T05:24:18.829Z,49.74
2018-06-18T05:24:50.001Z,48.43
2018-06-18T05:25:21.265Z,48.76
2018-06-18T05:25:52.533Z,48.84
2018-06-18T05:26:23.770Z,47.46
2018-06-18T05:26:55.048Z,47.60
2018-06-18T05:27:26.275Z,48.19
2018-06-18T05:27:57.452Z,48.19
2018-06-18T05:28:28.633Z,47.61
2018-06-18T05:28:59.819Z,47.39
2018-06-18T05:29:30.991Z,46.34
2018-06-18T05:30:02.268Z,46.14
2018-06-18T05:30:33.457Z,46.60
2018-06-18T05:31:04.700Z,46.33
2018-06-18T05:31:35.927Z,45.21
2018-06-18T05:32:07.140Z,45.03
2018-06-18T05:32:38.322Z,44.60
2018-06-18T05:33:09.604Z,44.84
2018-06-18T05:33:40.840Z,44.21
2018-06-18T05:34:12.073Z,43.62
2018-06-18T05:34:43.252Z,43.41
2018-06-18T05:35:14.416Z,44.45
2018-06-18T05:35:45.737Z,45.47
2018-06-18T05:36:16.956Z,45.64
2018-06-18T05:36:48.149Z,46.50
2018-06-18T05:37:20.589Z,46.92
2018-06-18T05:37:51.829Z,47.72
2018-06-18T05:38:23.254Z,47.35
2018-06-18T05:38:54.416Z,47.92
2018-06-18T05:39:25.592Z,48.73
2018-06-18T05:39:56.757Z,49.26
2018-06-18T05:40:27.943Z,50.46
2018-06-18T05:40:59.122Z,50.50
2018-06-18T05:41:30.300Z,50.91
2018-06-18T05:42:01.534Z,51.40
2018-06-18T05:42:32.745Z,51.72
2018-06-18T05:43:46.377Z,53.36
2018-06-18T05:44:17.616Z,53.02
2018-06-18T05:44:48.834Z,52.98
2018-06-18T05:45:20.038Z,53.32
2018-06-18T05:45:51.328Z,54.31
2018-06-18T05:46:22.504Z,54.55
2018-06-18T05:46:53.672Z,55.49
2018-06-18T05:47:24.906Z,55.38
2018-06-18T05:47:56.125Z,55.64
2018-06-18T05:48:27.304Z,56.03
2018-06-18T05:48:58.485Z,56.49
2018-06-18T05:49:29.669Z,56.42
2018-06-18T05:50:00.845Z,57.62
2018-06-18T05:51:09.482Z,58.12
2018-06-18T05:51:40.721Z,57.79
2018-06-18T05:52:11.926Z,57.66
2018-06-18T05:52:43.215Z,57.49
2018-06-18T05:53:14.417Z,57.16
2018-06-18T05:53:45.645Z,57.43
2018-06-18T05:54:16.847Z,57.40
2018-06-18T05:54:48.048Z,57.79
2018-06-18T05:55:19.245Z,57.57
2018-06-18T05:55:50.429Z,57.76
2018-06-18T05:56:21.616Z,57.93
2018-06-18T05:56:52.840Z,57.46
2018-06-18T05:57:24.016Z,57.19
2018-06-18T05:57:55.224Z,58.02
2018-06-18T05:58:26.433Z,57.31
2018-06-18T05:58:57.670Z,57.31
2018-06-18T05:59:28.896Z,57.09
2018-06-18T06:00:00.119Z,57.30
2018-06-18T06:00:31.297Z,56.74
2018-06-18T06:01:02.497Z,55.95
2018-06-18T06:01:33.695Z,56.65
2018-06-18T06:02:04.866Z,56.70
2018-06-18T06:02:36.057Z,57.82
2018-06-18T06:03:07.234Z,57.54
2018-06-18T06:03:38.424Z,57.38
2018-06-18T06:04:09.605Z,58.35
2018-06-18T06:04:40.852Z,58.67
2018-06-18T06:05:12.101Z,58.34
2018-06-18T06:05:43.340Z,58.19
2018-06-18T06:06:14.571Z,57.53
2018-06-18T06:06:45.826Z,56.92
2018-06-18T06:07:17.066Z,57.02
2018-06-18T06:07:48.279Z,57.07
2018-06-18T06:08:19.464Z,57.37
2018-06-18T06:08:50.667Z,57.06
2018-06-18T06:09:21.848Z,56.81
2018-06-18T06:09:53.215Z,57.97
2018-06-18T06:10:24.410Z,57.71
2018-06-18T06:10:55.645Z,57.19
2018-06-18T06:11:26.889Z,57.86
2018-06-18T06:11:58.186Z,57.61
2018-06-18T06:12:29.375Z,57.60
2018-06-18T06:13:00.574Z,57.55
2018-06-18T06:13:31.752Z,56.78
2018-06-18T06:14:03.002Z,56.47
2018-06-18T06:14:34.254Z,56.50
2018-06-18T06:15:05.455Z,57.08
2018-06-18T06:15:36.705Z,56.30
2018-06-18T06:16:07.896Z,56.90
2018-06-18T06:16:39.097Z,56.70
2018-06-18T06:17:10.369Z,55.75
2018-06-18T06:17:41.622Z,54.86
2018-06-18T06:18:12.819Z,54.73
2018-06-18T06:18:44.032Z,53.74
2018-06-18T06:19:15.260Z,54.88
2018-06-18T06:19:46.502Z,56.49
2018-06-18T06:20:17.721Z,56.20
2018-06-18T06:20:48.937Z,55.50
2018-06-18T06:21:20.129Z,55.24
2018-06-18T06:21:51.361Z,54.48
2018-06-18T06:22:22.585Z,53.69
2018-06-18T06:22:53.797Z,54.27
2018-06-18T06:23:24.971Z,53.33
2018-06-18T06:23:56.165Z,53.07
2018-06-18T06:24:27.426Z,53.45
2018-06-18T06:24:58.612Z,54.33
2018-06-18T06:25:29.794Z,54.81
2018-06-18T06:26:00.997Z,54.55
2018-06-18T06:26:32.212Z,54.43
2018-06-18T06:27:03.452Z,54.56
2018-06-18T06:27:34.641Z,53.78
2018-06-18T06:28:05.826Z,53.74
2018-06-18T06:28:37.053Z,54.60
2018-06-18T06:29:08.314Z,54.38
2018-06-18T06:29:39.611Z,55.43
2018-06-18T06:30:10.785Z,54.58
2018-06-18T06:30:41.980Z,54.81
2018-06-18T06:31:13.153Z,55.37
2018-06-18T06:31:44.336Z,54.68
2018-06-18T06:32:15.569Z,54.33
2018-06-18T06:32:46.762Z,54.27
2018-06-18T06:33:17.973Z,53.85
2018-06-18T06:33:49.266Z,54.37
2018-06-18T06:34:20.459Z,53.13
2018-06-18T06:34:51.800Z,54.53
2018-06-18T06:35:23.143Z,54.86
2018-06-18T06:35:54.387Z,55.55
2018-06-18T06:36:25.593Z,55.64
2018-06-18T06:36:56.854Z,55.98
2018-06-18T06:37:28.074Z,55.08
2018-06-18T06:37:59.271Z,54.76
2018-06-18T06:38:30.456Z,54.89
2018-06-18T06:39:01.730Z,56.22
2018-06-18T06:39:32.958Z,55.77
2018-06-18T06:40:04.152Z,55.68
2018-06-18T06:40:35.348Z,55.33
2018-06-18T06:41:06.534Z,55.64
2018-06-18T06:41:37.713Z,55.78
2018-06-18T06:42:08.888Z,54.83
2018-06-18T06:42:40.070Z,53.88
2018-06-18T06:43:11.304Z,54.31
2018-06-18T06:43:42.523Z,55.50
2018-06-18T06:44:13.733Z,55.63